createdAt,value
2019-05-30T00:01:58.565Z,74.83
2019-05-30T00:04:27.850Z,75.18
2019-05-30T00:06:58.539Z,75.22
2019-05-30T00:09:27.808Z,75.32
2019-05-30T00:11:56.937Z,75.44
2019-05-30T00:14:26.090Z,75.75
2019-05-30T00:16:56.665Z,76.00
2019-05-30T00:19:26.004Z,76.36
2019-05-30T00:21:55.149Z,76.72
2019-05-30T00:24:24.347Z,76.91
2019-05-30T00:26:53.468Z,76.67
2019-05-30T00:29:22.599Z,76.43
2019-05-30T00:31:51.756Z,76.32
2019-05-30T00:34:20.981Z,76.08
2019-05-30T00:36:50.189Z,75.95
2019-05-30T00:39:19.306Z,75.91
2019-05-30T00:41:48.599Z,75.92
2019-05-30T00:44:17.758Z,76.03
2019-05-30T00:46:46.883Z,76.14
2019-05-30T00:49:16.112Z,76.08
2019-05-30T00:51:45.292Z,76.19
2019-05-30T00:54:14.453Z,76.11
2019-05-30T00:56:43.737Z,76.06
2019-05-30T00:59:12.851Z,75.76
2019-05-30T01:01:42.049Z,75.60
2019-05-30T01:04:11.147Z,75.75
2019-05-30T01:06:40.313Z,76.01
2019-05-30T01:09:09.415Z,76.04
2019-05-30T01:11:38.533Z,75.73
2019-05-30T01:14:07.704Z,75.29
2019-05-30T01:16:36.791Z,74.91
2019-05-30T01:19:05.875Z,74.57
2019-05-30T01:21:35.093Z,74.40
2019-05-30T01:24:05.625Z,74.40
2019-05-30T01:26:34.888Z,74.27
2019-05-30T01:29:05.474Z,74.07
2019-05-30T01:31:34.942Z,73.80
2019-05-30T01:34:04.086Z,73.57
2019-05-30T01:36:33.194Z,73.25
2019-05-30T01:39:02.411Z,73.39
2019-05-30T01:41:31.502Z,73.17
2019-05-30T01:44:01.842Z,73.06
2019-05-30T01:46:31.042Z,72.94
2019-05-30T01:49:00.290Z,72.95
2019-05-30T01:51:29.416Z,72.72
2019-05-30T01:53:58.673Z,72.62
2019-05-30T01:56:27.775Z,72.91
2019-05-30T01:58:56.878Z,72.93
2019-05-30T02:01:26.021Z,72.93
2019-05-30T02:03:55.250Z,72.69
2019-05-30T02:06:24.506Z,72.44
2019-05-30T02:08:53.582Z,72.41
2019-05-30T02:11:22.765Z,72.62
2019-05-30T02:13:52.018Z,72.81
2019-05-30T02:16:21.144Z,72.84
2019-05-30T02:18:50.272Z,72.75
2019-05-30T02:21:19.526Z,72.70
2019-05-30T02:23:48.601Z,72.83
2019-05-30T02:26:17.738Z,73.35
2019-05-30T02:28:46.841Z,73.69
2019-05-30T02:31:15.945Z,73.83
2019-05-30T02:33:45.085Z,73.96
2019-05-30T02:36:14.177Z,73.98
2019-05-30T02:38:43.316Z,73.92
2019-05-30T02:41:13.279Z,73.67
2019-05-30T02:43:42.358Z,73.31
2019-05-30T02:46:12.579Z,73.19
2019-05-30T02:48:58.008Z,73.14
2019-05-30T02:51:12.930Z,73.17
2019-05-30T02:53:42.215Z,73.11
2019-05-30T02:56:12.700Z,73.16
2019-05-30T02:58:41.934Z,73.35
2019-05-30T03:01:12.127Z,73.50
2019-05-30T03:03:41.926Z,73.58
2019-05-30T03:06:13.585Z,73.87
2019-05-30T03:08:41.912Z,73.87
2019-05-30T03:11:15.036Z,73.73
2019-05-30T03:13:42.248Z,73.66
2019-05-30T03:16:13.511Z,73.55
2019-05-30T03:18:42.162Z,73.48
2019-05-30T03:21:13.412Z,73.25
2019-05-30T03:23:42.145Z,73.10
2019-05-30T03:26:13.695Z,73.12
2019-05-30T03:28:42.235Z,73.39
2019-05-30T03:31:23.072Z,73.50
2019-05-30T03:33:43.409Z,73.42
2019-05-30T03:36:26.418Z,73.31
2019-05-30T03:38:43.681Z,73.28
2019-05-30T03:41:12.816Z,73.33
2019-05-30T03:43:41.946Z,73.07
2019-05-30T03:46:18.591Z,73.04
2019-05-30T03:48:50.620Z,73.05
2019-05-30T03:51:21.445Z,73.00
2019-05-30T03:53:51.308Z,73.25
2019-05-30T03:56:24.454Z,73.68
2019-05-30T03:59:32.224Z,73.80
2019-05-30T04:02:09.556Z,73.93
2019-05-30T04:04:43.038Z,74.17
2019-05-30T04:07:19.429Z,74.41
2019-05-30T04:09:51.190Z,74.39
2019-05-30T04:12:41.932Z,74.31
2019-05-30T04:15:18.676Z,74.32
2019-05-30T04:17:48.048Z,74.45
2019-05-30T04:20:21.215Z,74.49
2019-05-30T04:22:48.077Z,74.67
2019-05-30T04:25:18.330Z,74.71
2019-05-30T04:27:47.769Z,74.74
2019-05-30T04:30:18.404Z,74.49
2019-05-30T04:32:47.708Z,74.14
2019-05-30T04:35:18.786Z,73.83
2019-05-30T04:37:47.769Z,73.90
2019-05-30T04:40:19.201Z,74.13
2019-05-30T04:42:48.557Z,73.85
2019-05-30T04:45:18.141Z,73.81
2019-05-30T04:47:47.962Z,73.43
2019-05-30T04:50:18.767Z,73.62
2019-05-30T04:52:48.146Z,73.74
2019-05-30T04:55:18.509Z,73.66
2019-05-30T04:57:48.165Z,73.88
2019-05-30T05:00:19.309Z,73.61
2019-05-30T05:02:48.615Z,73.74
2019-05-30T05:05:24.758Z,74.10
2019-05-30T05:07:50.404Z,74.62
2019-05-30T05:10:20.360Z,74.88
2019-05-30T05:12:49.509Z,74.77
2019-05-30T05:15:18.867Z,74.59
2019-05-30T05:17:47.994Z,74.39
2019-05-30T05:20:17.406Z,74.01
2019-05-30T05:22:46.587Z,73.89
2019-05-30T05:25:15.742Z,73.66
2019-05-30T05:27:44.848Z,73.75
2019-05-30T05:30:16.042Z,74.48
2019-05-30T05:32:45.215Z,74.84
2019-05-30T05:35:14.807Z,74.29
2019-05-30T05:37:44.098Z,74.33
2019-05-30T05:40:13.569Z,74.37
2019-05-30T05:42:42.906Z,75.04
2019-05-30T05:45:12.456Z,74.69
2019-05-30T05:47:41.620Z,74.79
2019-05-30T05:50:11.979Z,74.65
2019-05-30T05:52:41.274Z,74.56
2019-05-30T05:55:10.535Z,74.86
2019-05-30T05:57:39.669Z,74.33
2019-05-30T06:00:10.072Z,73.92
2019-05-30T06:02:39.279Z,73.54
2019-05-30T06:05:08.539Z,73.88
2019-05-30T06:07:37.687Z,73.48
2019-05-30T06:10:07.259Z,73.11
2019-05-30T06:12:36.416Z,72.94
2019-05-30T06:15:05.784Z,72.42
2019-05-30T06:17:34.917Z,72.44
2019-05-30T06:20:04.357Z,72.91
2019-05-30T06:22:33.619Z,71.99
2019-05-30T06:25:03.695Z,71.33
2019-05-30T06:27:32.789Z,71.12
2019-05-30T06:30:02.026Z,70.82
2019-05-30T06:32:31.452Z,70.83
2019-05-30T06:35:00.620Z,71.07
2019-05-30T06:37:29.742Z,70.97
2019-05-30T06:39:58.888Z,70.99
2019-05-30T06:42:28.308Z,70.30
2019-05-30T06:44:57.544Z,69.66
2019-05-30T06:47:26.678Z,67.04
2019-05-30T06:49:55.828Z,67.62
2019-05-30T06:52:25.016Z,67.67
2019-05-30T06:54:54.115Z,67.71
2019-05-30T06:57:23.242Z,65.41
2019-05-30T06:59:52.393Z,66.15
2019-05-30T07:02:22.296Z,64.85
2019-05-30T07:04:52.924Z,64.45
2019-05-30T07:07:22.984Z,63.62
2019-05-30T07:09:52.338Z,60.40
2019-05-30T07:12:22.818Z,59.59
2019-05-30T07:14:52.067Z,62.13
2019-05-30T07:17:21.282Z,63.07
2019-05-30T07:19:50.407Z,62.09
2019-05-30T07:22:19.617Z,59.69
2019-05-30T07:24:48.740Z,57.10
2019-05-30T07:27:17.953Z,56.41
2019-05-30T07:29:47.112Z,56.39
2019-05-30T07:32:16.260Z,57.93
2019-05-30T07:34:46.138Z,58.57
2019-05-30T07:37:17.376Z,58.95
2019-05-30T07:39:46.515Z,59.40
2019-05-30T07:42:15.696Z,58.63
2019-05-30T07:44:44.881Z,58.10
2019-05-30T07:47:14.007Z,57.71
2019-05-30T07:49:43.169Z,59.12
2019-05-30T07:52:12.313Z,56.95
2019-05-30T07:54:41.640Z,57.37
2019-05-30T07:57:10.752Z,57.21
2019-05-30T07:59:40.083Z,54.75
2019-05-30T08:02:09.395Z,55.57
2019-05-30T08:04:38.625Z,54.62
2019-05-30T08:07:07.867Z,52.71
2019-05-30T08:09:37.047Z,50.80
2019-05-30T08:12:06.176Z,52.95
2019-05-30T08:14:35.381Z,53.53
2019-05-30T08:17:04.662Z,52.16
2019-05-30T08:19:34.376Z,53.79
2019-05-30T08:22:03.674Z,53.29
2019-05-30T08:24:34.395Z,52.65
2019-05-30T08:27:03.915Z,52.60
2019-05-30T08:29:34.280Z,52.12
2019-05-30T08:32:03.452Z,51.36
2019-05-30T08:34:32.689Z,53.45
2019-05-30T08:37:01.805Z,53.00
2019-05-30T08:39:30.952Z,52.74
2019-05-30T08:42:00.129Z,49.58
2019-05-30T08:44:29.440Z,50.77
2019-05-30T08:46:58.639Z,49.27
2019-05-30T08:49:27.856Z,49.56
2019-05-30T08:51:57.009Z,50.57
2019-05-30T08:54:26.126Z,50.69
2019-05-30T08:56:55.284Z,51.53
2019-05-30T08:59:24.424Z,51.83
2019-05-30T09:01:53.579Z,51.66
2019-05-30T09:04:22.712Z,52.52
2019-05-30T09:06:51.907Z,52.42
2019-05-30T09:09:21.085Z,52.08
2019-05-30T09:11:50.256Z,51.86
2019-05-30T09:14:19.395Z,51.97
2019-05-30T09:16:49.614Z,51.09
2019-05-30T09:19:19.024Z,50.78
2019-05-30T09:21:48.374Z,50.34
2019-05-30T09:24:17.571Z,51.74
2019-05-30T09:26:50.032Z,51.11
2019-05-30T09:29:17.666Z,52.34
2019-05-30T09:31:46.959Z,51.81
2019-05-30T09:34:16.066Z,50.84
2019-05-30T09:36:45.247Z,51.57
2019-05-30T09:39:14.463Z,51.24
2019-05-30T09:41:43.890Z,50.67
2019-05-30T09:44:13.109Z,50.97
2019-05-30T09:46:42.542Z,51.36
2019-05-30T09:49:11.793Z,50.27
2019-05-30T09:51:42.488Z,50.14
2019-05-30T09:54:11.823Z,50.27
2019-05-30T09:56:42.042Z,49.66
2019-05-30T09:59:11.912Z,49.50
2019-05-30T10:01:42.576Z,47.62
2019-05-30T10:04:11.947Z,47.22
2019-05-30T10:06:42.081Z,47.85
2019-05-30T10:09:12.004Z,47.79
2019-05-30T10:11:41.228Z,50.35
2019-05-30T10:14:10.397Z,48.49
2019-05-30T10:16:39.597Z,47.29
2019-05-30T10:19:08.776Z,49.19
2019-05-30T10:21:38.110Z,46.28
2019-05-30T10:24:07.279Z,47.49
2019-05-30T10:26:36.621Z,45.88
2019-05-30T10:29:05.943Z,44.04
2019-05-30T10:31:35.130Z,41.88
2019-05-30T10:34:04.521Z,43.92
2019-05-30T10:36:43.857Z,41.96
2019-05-30T10:39:05.798Z,42.62
2019-05-30T10:41:34.934Z,42.73
2019-05-30T10:44:04.093Z,43.45
2019-05-30T10:46:33.292Z,44.29
2019-05-30T10:49:02.697Z,42.68
2019-05-30T10:51:31.898Z,41.76
2019-05-30T10:54:01.267Z,40.18
2019-05-30T10:56:30.441Z,37.06
2019-05-30T10:58:59.610Z,39.14
2019-05-30T11:01:28.776Z,38.48
2019-05-30T11:03:57.898Z,38.90
2019-05-30T11:06:42.527Z,38.49
2019-05-30T11:09:13.333Z,39.23
2019-05-30T11:11:42.475Z,39.92
2019-05-30T11:14:11.668Z,39.34
2019-05-30T11:16:40.887Z,39.85
2019-05-30T11:19:10.108Z,40.27
2019-05-30T11:21:39.308Z,39.08
2019-05-30T11:24:08.444Z,39.00
2019-05-30T11:26:37.686Z,37.50
2019-05-30T11:29:06.901Z,38.89
2019-05-30T11:31:36.109Z,37.21
2019-05-30T11:34:05.393Z,37.90
2019-05-30T11:36:34.505Z,38.36
2019-05-30T11:39:04.402Z,36.87
2019-05-30T11:41:33.562Z,41.19
2019-05-30T11:44:04.230Z,37.59
2019-05-30T11:46:33.565Z,38.05
2019-05-30T11:49:02.710Z,36.30
2019-05-30T11:51:31.941Z,36.95
2019-05-30T11:54:01.232Z,38.63
2019-05-30T11:56:30.335Z,38.09
2019-05-30T11:59:00.186Z,38.70
2019-05-30T12:01:29.533Z,40.15
2019-05-30T12:03:58.833Z,39.58
2019-05-30T12:06:27.954Z,38.17
2019-05-30T12:08:57.136Z,37.64
2019-05-30T12:11:26.291Z,37.96
2019-05-30T12:13:57.083Z,36.90
2019-05-30T12:16:26.562Z,36.80
2019-05-30T12:18:55.867Z,37.21
2019-05-30T12:21:25.047Z,37.73
2019-05-30T12:23:54.531Z,38.60
2019-05-30T12:26:23.782Z,38.82
2019-05-30T12:28:54.097Z,37.60
2019-05-30T12:31:23.325Z,38.56
2019-05-30T12:33:52.495Z,38.17
2019-05-30T12:36:21.627Z,37.62
2019-05-30T12:38:50.793Z,37.09
2019-05-30T12:41:19.970Z,39.45
2019-05-30T12:43:49.125Z,37.80
2019-05-30T12:46:20.396Z,37.95
2019-05-30T12:48:49.605Z,35.81
2019-05-30T12:51:18.787Z,36.42
2019-05-30T12:53:48.003Z,35.50
2019-05-30T12:56:17.120Z,36.33
2019-05-30T12:58:46.346Z,36.34
2019-05-30T13:01:17.971Z,34.32
2019-05-30T13:03:47.146Z,34.90
2019-05-30T13:06:16.273Z,35.00
2019-05-30T13:08:45.592Z,33.51
2019-05-30T13:11:14.868Z,33.59
2019-05-30T13:13:44.040Z,35.55
2019-05-30T13:16:13.200Z,35.35
2019-05-30T13:18:42.356Z,34.89
2019-05-30T13:21:11.548Z,36.24
2019-05-30T13:23:40.746Z,36.29
2019-05-30T13:26:09.955Z,36.82
2019-05-30T13:28:39.106Z,36.59
2019-05-30T13:31:08.243Z,37.01
2019-05-30T13:33:38.608Z,36.31
2019-05-30T13:36:07.946Z,37.61
2019-05-30T13:38:37.116Z,39.40
2019-05-30T13:41:06.285Z,36.93
2019-05-30T13:43:35.437Z,36.26
2019-05-30T13:46:04.731Z,37.24
2019-05-30T13:48:33.911Z,36.05
2019-05-30T13:51:03.081Z,36.63
2019-05-30T13:53:32.295Z,35.77
2019-05-30T13:56:01.538Z,35.37
2019-05-30T13:58:30.873Z,34.29
2019-05-30T14:01:04.248Z,34.58
2019-05-30T14:03:31.024Z,32.89
2019-05-30T14:06:00.172Z,33.60
2019-05-30T14:08:41.105Z,33.01
2019-05-30T14:11:02.499Z,32.61
2019-05-30T14:13:31.685Z,34.12
2019-05-30T14:16:01.006Z,33.63
2019-05-30T14:18:30.229Z,33.69
2019-05-30T14:20:59.359Z,33.45
2019-05-30T14:23:28.512Z,32.88
2019-05-30T14:25:57.680Z,32.11
2019-05-30T14:28:26.872Z,32.23
2019-05-30T14:30:56.080Z,32.36
2019-05-30T14:33:25.368Z,31.63
2019-05-30T14:35:54.479Z,31.12
2019-05-30T14:38:23.694Z,32.24
2019-05-30T14:40:52.949Z,30.91
2019-05-30T14:43:22.103Z,31.39
2019-05-30T14:45:51.780Z,32.38
2019-05-30T14:48:20.889Z,31.92
2019-05-30T14:50:50.027Z,33.01
2019-05-30T14:53:19.195Z,31.34
2019-05-30T14:55:48.322Z,31.43
2019-05-30T14:58:17.832Z,31.15
2019-05-30T15:00:47.202Z,31.46
2019-05-30T15:03:17.527Z,31.74
2019-05-30T15:05:46.763Z,32.60
2019-05-30T15:08:16.910Z,33.42
2019-05-30T15:10:46.460Z,33.56
2019-05-30T15:13:15.835Z,34.72
2019-05-30T15:15:44.885Z,34.90
2019-05-30T15:18:14.032Z,34.14
2019-05-30T15:20:43.164Z,35.08
2019-05-30T15:23:12.358Z,34.49
2019-05-30T15:25:44.307Z,34.61
2019-05-30T15:28:14.130Z,34.97
2019-05-30T15:30:43.433Z,35.19
2019-05-30T15:33:12.713Z,33.90
2019-05-30T15:35:41.769Z,33.38
2019-05-30T15:38:10.966Z,30.79
2019-05-30T15:40:40.443Z,30.39
2019-05-30T15:43:09.588Z,28.55
2019-05-30T15:45:38.748Z,28.51
2019-05-30T15:48:08.305Z,26.99
2019-05-30T15:50:37.471Z,25.83
2019-05-30T15:53:06.629Z,26.73
2019-05-30T15:55:35.752Z,26.43
2019-05-30T15:58:04.938Z,26.35
2019-05-30T16:00:36.920Z,26.43
2019-05-30T16:03:05.266Z,26.06
2019-05-30T16:05:34.430Z,26.26
2019-05-30T16:08:03.603Z,26.08
2019-05-30T16:10:32.738Z,25.72
2019-05-30T16:13:01.909Z,25.99
2019-05-30T16:15:31.048Z,25.72
2019-05-30T16:18:00.566Z,26.09
2019-05-30T16:20:29.715Z,25.78
2019-05-30T16:22:58.929Z,27.33
2019-05-30T16:25:28.061Z,27.28
2019-05-30T16:27:57.262Z,26.98
2019-05-30T16:30:27.126Z,28.90
2019-05-30T16:32:56.350Z,28.11
2019-05-30T16:35:26.503Z,28.75
2019-05-30T16:37:55.708Z,30.36
2019-05-30T16:40:24.905Z,30.65
2019-05-30T16:42:54.093Z,29.98
2019-05-30T16:45:25.362Z,30.05
2019-05-30T16:47:55.085Z,30.68
2019-05-30T16:50:24.673Z,29.84
2019-05-30T16:52:53.834Z,30.14
2019-05-30T16:55:23.496Z,30.02
2019-05-30T16:57:52.622Z,29.76
2019-05-30T17:00:22.401Z,30.47
2019-05-30T17:02:51.642Z,29.27
2019-05-30T17:05:20.770Z,29.83
2019-05-30T17:07:49.930Z,29.79
2019-05-30T17:10:27.484Z,30.39
2019-05-30T17:12:50.176Z,30.85
2019-05-30T17:15:19.998Z,31.24
2019-05-30T17:17:49.119Z,30.25
2019-05-30T17:20:18.636Z,30.70
2019-05-30T17:22:47.803Z,31.10
2019-05-30T17:25:17.164Z,31.07
2019-05-30T17:27:46.376Z,32.73
2019-05-30T17:30:17.405Z,33.00
2019-05-30T17:32:47.051Z,33.83
2019-05-30T17:35:16.298Z,31.78
2019-05-30T17:37:45.433Z,31.53
2019-05-30T17:40:15.168Z,34.80
2019-05-30T17:42:44.324Z,33.94
2019-05-30T17:45:15.239Z,32.72
2019-05-30T17:47:44.383Z,31.55
2019-05-30T17:50:13.740Z,31.66
2019-05-30T17:52:42.862Z,32.35
2019-05-30T17:55:13.948Z,32.20
2019-05-30T17:57:43.142Z,32.47
2019-05-30T18:00:13.096Z,32.71
2019-05-30T18:02:42.285Z,33.39
2019-05-30T18:05:11.780Z,33.52
2019-05-30T18:07:41.445Z,33.92
2019-05-30T18:10:12.374Z,33.66
2019-05-30T18:12:41.516Z,33.41
2019-05-30T18:15:11.395Z,33.20
2019-05-30T18:17:40.588Z,34.11
2019-05-30T18:20:10.493Z,33.86
2019-05-30T18:22:39.657Z,34.16
2019-05-30T18:25:10.708Z,36.69
2019-05-30T18:27:39.886Z,39.52
2019-05-30T18:30:09.620Z,41.20
2019-05-30T18:32:38.784Z,38.50
2019-05-30T18:35:08.686Z,38.05
2019-05-30T18:37:38.462Z,40.48
2019-05-30T18:40:08.088Z,42.70
2019-05-30T18:42:37.439Z,42.11
2019-05-30T18:45:08.193Z,44.18
2019-05-30T18:47:37.338Z,45.02
2019-05-30T18:50:06.805Z,44.48
2019-05-30T18:52:36.812Z,45.15
2019-05-30T18:55:06.660Z,45.93
2019-05-30T18:57:37.128Z,46.20
2019-05-30T19:00:07.593Z,45.67
2019-05-30T19:02:36.982Z,45.83
2019-05-30T19:05:06.950Z,48.47
2019-05-30T19:07:37.209Z,47.13
2019-05-30T19:10:07.063Z,47.33
2019-05-30T19:12:36.639Z,48.62
2019-05-30T19:15:06.861Z,45.44
2019-05-30T19:17:36.153Z,45.71
2019-05-30T19:20:05.727Z,45.39
2019-05-30T19:22:36.295Z,47.41
2019-05-30T19:25:05.977Z,48.86
2019-05-30T19:27:37.995Z,48.60
2019-05-30T19:30:06.814Z,48.48
2019-05-30T19:32:36.940Z,50.17
2019-05-30T19:35:07.398Z,50.07
2019-05-30T19:37:37.616Z,48.34
2019-05-30T19:40:07.447Z,48.15
2019-05-30T19:42:37.866Z,47.42
2019-05-30T19:45:08.097Z,48.43
2019-05-30T19:47:38.598Z,50.74
2019-05-30T19:50:09.529Z,49.53
2019-05-30T19:52:39.213Z,49.76
2019-05-30T19:55:09.019Z,50.23
2019-05-30T19:57:38.110Z,50.68
2019-05-30T20:00:08.531Z,50.95
2019-05-30T20:02:38.311Z,50.99
2019-05-30T20:05:08.381Z,51.95
2019-05-30T20:07:38.760Z,51.75
2019-05-30T20:10:08.279Z,52.02
2019-05-30T20:12:37.489Z,51.95
2019-05-30T20:15:08.083Z,52.60
2019-05-30T20:17:37.611Z,51.95
2019-05-30T20:20:07.586Z,51.60
2019-05-30T20:22:38.126Z,52.60
2019-05-30T20:25:08.263Z,52.66
2019-05-30T20:27:38.808Z,52.66
2019-05-30T20:30:09.750Z,52.21
2019-05-30T20:32:39.057Z,52.31
2019-05-30T20:35:08.322Z,52.61
2019-05-30T20:37:38.640Z,53.04
2019-05-30T20:40:08.120Z,54.04
2019-05-30T20:42:37.398Z,53.22
2019-05-30T20:45:09.913Z,52.20
2019-05-30T20:47:39.363Z,51.53
2019-05-30T20:50:09.291Z,52.19
2019-05-30T20:52:41.847Z,51.48
2019-05-30T20:55:09.775Z,51.72
2019-05-30T20:57:39.002Z,53.55
2019-05-30T21:00:08.653Z,52.67
2019-05-30T21:02:39.083Z,53.86
2019-05-30T21:05:10.157Z,53.85
2019-05-30T21:07:41.944Z,53.92
2019-05-30T21:10:12.842Z,54.15
2019-05-30T21:12:46.753Z,54.14
2019-05-30T21:15:14.766Z,53.57
2019-05-30T21:17:46.373Z,53.70
2019-05-30T21:20:15.595Z,52.97
2019-05-30T21:22:44.934Z,53.78
2019-05-30T21:25:14.371Z,52.63
2019-05-30T21:27:43.528Z,52.69
2019-05-30T21:30:13.218Z,52.54
2019-05-30T21:32:44.112Z,52.74
2019-05-30T21:35:14.320Z,52.89
2019-05-30T21:37:43.877Z,53.13
2019-05-30T21:40:13.017Z,54.64
2019-05-30T21:42:58.243Z,54.56
2019-05-30T21:45:13.499Z,54.33
2019-05-30T21:47:42.902Z,55.02
2019-05-30T21:50:12.314Z,54.19
2019-05-30T21:52:41.639Z,54.45
2019-05-30T21:55:11.063Z,55.20
2019-05-30T21:57:40.276Z,55.84
2019-05-30T22:00:12.419Z,56.10
2019-05-30T22:02:44.563Z,55.54
2019-05-30T22:05:13.839Z,56.43
2019-05-30T22:07:43.127Z,56.67
2019-05-30T22:10:12.259Z,56.18
2019-05-30T22:12:41.550Z,55.99
2019-05-30T22:15:10.963Z,55.74
2019-05-30T22:17:43.760Z,56.55
2019-05-30T22:20:13.055Z,56.17
2019-05-30T22:22:42.246Z,56.64
2019-05-30T22:25:11.472Z,56.74
2019-05-30T22:27:40.656Z,57.27
2019-05-30T22:30:09.892Z,57.93
2019-05-30T22:32:39.039Z,57.66
2019-05-30T22:35:08.240Z,58.10
2019-05-30T22:37:37.348Z,58.76
2019-05-30T22:40:06.523Z,58.98
2019-05-30T22:42:35.676Z,59.17
2019-05-30T22:45:05.119Z,58.33
2019-05-30T22:47:34.245Z,58.70
2019-05-30T22:50:03.372Z,58.63
2019-05-30T22:52:32.640Z,59.11
2019-05-30T22:55:01.822Z,59.49
2019-05-30T22:57:30.949Z,59.28
2019-05-30T23:00:00.036Z,59.21
2019-05-30T23:02:29.208Z,60.17
2019-05-30T23:04:58.342Z,60.28
2019-05-30T23:07:27.452Z,59.76
2019-05-30T23:09:56.566Z,59.83
2019-05-30T23:12:25.725Z,59.65
2019-05-30T23:14:54.882Z,59.70
2019-05-30T23:17:24.016Z,60.16
2019-05-30T23:19:53.285Z,60.35
2019-05-30T23:22:22.636Z,60.23
2019-05-30T23:24:52.611Z,60.19
2019-05-30T23:27:22.880Z,60.31
2019-05-30T23:29:52.002Z,60.52
2019-05-30T23:32:21.158Z,60.37
2019-05-30T23:34:50.283Z,60.44
2019-05-30T23:37:19.472Z,60.43
2019-05-30T23:39:48.771Z,60.84
2019-05-30T23:42:17.974Z,61.21
2019-05-30T23:44:47.082Z,61.40
2019-05-30T23:47:16.258Z,61.95
2019-05-30T23:49:45.497Z,61.72
2019-05-30T23:52:14.614Z,61.38
2019-05-30T23:54:43.726Z,61.39
2019-05-30T23:57:12.845Z,61.29
2019-05-30T23:59:42.012Z,61.27
